createdAt,value
2019-05-18T00:01:06.795Z,15.63
2019-05-18T00:03:37.135Z,15.63
2019-05-18T00:06:07.698Z,15.67
2019-05-18T00:08:48.579Z,15.63
2019-05-18T00:11:21.895Z,16.93
2019-05-18T00:13:52.428Z,16.37
2019-05-18T00:16:28.488Z,16.17
2019-05-18T00:19:08.306Z,16.37
2019-05-18T00:21:39.099Z,16.73
2019-05-18T00:24:09.799Z,16.20
2019-05-18T00:26:40.167Z,15.87
2019-05-18T00:29:11.015Z,16.93
2019-05-18T00:31:41.264Z,16.87
2019-05-18T00:34:12.949Z,16.80
2019-05-18T00:36:43.251Z,16.73
2019-05-18T00:39:13.568Z,16.83
2019-05-18T00:41:45.654Z,15.77
2019-05-18T00:44:16.175Z,15.60
2019-05-18T00:46:46.478Z,16.20
2019-05-18T00:49:16.774Z,15.33
2019-05-18T00:51:47.320Z,14.17
2019-05-18T00:54:20.609Z,15.50
2019-05-18T00:56:50.815Z,16.03
2019-05-18T00:59:21.829Z,15.23
2019-05-18T01:01:52.283Z,14.97
2019-05-18T01:04:24.418Z,15.50
2019-05-18T01:06:58.822Z,14.97
2019-05-18T01:09:29.860Z,14.23
2019-05-18T01:12:00.673Z,14.63
2019-05-18T01:14:31.348Z,14.63
2019-05-18T01:17:01.552Z,14.90
2019-05-18T01:19:31.899Z,14.40
2019-05-18T01:22:02.447Z,14.87
2019-05-18T01:24:33.079Z,15.00
2019-05-18T01:27:03.763Z,15.03
2019-05-18T01:29:35.123Z,16.07
2019-05-18T01:32:05.616Z,14.33
2019-05-18T01:34:36.473Z,14.07
2019-05-18T01:37:07.101Z,14.83
2019-05-18T01:39:37.237Z,14.23
2019-05-18T01:42:07.588Z,15.47
2019-05-18T01:44:38.073Z,14.33
2019-05-18T01:47:08.522Z,13.90
2019-05-18T01:49:38.871Z,13.60
2019-05-18T01:52:09.938Z,14.03
2019-05-18T01:54:40.169Z,14.17
2019-05-18T01:57:10.293Z,14.03
2019-05-18T01:59:41.737Z,16.37
2019-05-18T02:02:12.174Z,15.33
2019-05-18T02:04:42.864Z,15.00
2019-05-18T02:07:13.829Z,14.87
2019-05-18T02:09:44.177Z,15.67
2019-05-18T02:12:14.257Z,14.77
2019-05-18T02:14:44.565Z,14.50
2019-05-18T02:17:16.380Z,13.60
2019-05-18T02:19:47.129Z,18.03
2019-05-18T02:22:17.442Z,19.13
2019-05-18T02:24:48.017Z,16.30
2019-05-18T02:27:18.247Z,15.93
2019-05-18T02:29:48.968Z,15.27
2019-05-18T02:32:19.239Z,15.70
2019-05-18T02:34:49.882Z,14.77
2019-05-18T02:37:20.208Z,15.00
2019-05-18T02:39:52.703Z,15.67
2019-05-18T02:42:22.943Z,14.57
2019-05-18T02:44:57.226Z,15.00
2019-05-18T02:47:30.827Z,14.63
2019-05-18T02:50:04.905Z,14.30
2019-05-18T02:52:37.489Z,15.33
2019-05-18T02:55:08.197Z,14.60
2019-05-18T02:57:49.540Z,14.53
2019-05-18T03:00:20.484Z,14.10
2019-05-18T03:02:50.641Z,13.87
2019-05-18T03:05:20.885Z,14.13
2019-05-18T03:07:51.459Z,14.37
2019-05-18T03:10:22.290Z,15.20
2019-05-18T03:12:53.230Z,14.03
2019-05-18T03:15:24.384Z,13.53
2019-05-18T03:17:54.519Z,14.17
2019-05-18T03:20:25.129Z,13.33
2019-05-18T03:22:55.573Z,13.70
2019-05-18T03:25:25.950Z,12.60
2019-05-18T03:27:56.688Z,14.07
2019-05-18T03:30:27.249Z,15.43
2019-05-18T03:32:57.443Z,15.77
2019-05-18T03:35:30.991Z,16.70
2019-05-18T03:38:03.128Z,16.50
2019-05-18T03:40:33.702Z,15.40
2019-05-18T03:43:04.002Z,14.50
2019-05-18T03:45:34.535Z,16.37
2019-05-18T03:48:04.800Z,15.07
2019-05-18T03:50:36.684Z,15.43
2019-05-18T03:53:06.878Z,16.23
2019-05-18T03:55:37.063Z,16.23
2019-05-18T03:58:07.271Z,15.80
2019-05-18T04:00:38.114Z,16.13
2019-05-18T04:03:20.233Z,16.10
2019-05-18T04:05:40.259Z,14.17
2019-05-18T04:08:11.091Z,15.10
2019-05-18T04:10:41.453Z,14.70
2019-05-18T04:13:11.766Z,14.27
2019-05-18T04:15:41.804Z,15.80
2019-05-18T04:18:12.118Z,13.20
2019-05-18T04:20:43.455Z,13.00
2019-05-18T04:23:14.344Z,15.17
2019-05-18T04:25:44.828Z,14.03
2019-05-18T04:28:15.444Z,14.93
2019-05-18T04:30:45.892Z,16.37
2019-05-18T04:33:17.019Z,14.47
2019-05-18T04:35:47.354Z,14.47
2019-05-18T04:38:17.660Z,14.67
2019-05-18T04:40:53.687Z,15.27
2019-05-18T04:43:24.726Z,15.43
2019-05-18T04:45:55.754Z,15.10
2019-05-18T04:48:26.908Z,14.57
2019-05-18T04:50:59.177Z,14.83
2019-05-18T04:53:29.846Z,15.53
2019-05-18T04:56:03.430Z,15.40
2019-05-18T04:58:33.986Z,14.33
2019-05-18T05:01:04.528Z,14.17
2019-05-18T05:03:34.695Z,13.13
2019-05-18T05:06:05.434Z,13.63
2019-05-18T05:08:35.653Z,13.30
2019-05-18T05:11:12.750Z,13.57
2019-05-18T05:13:43.089Z,14.33
2019-05-18T05:16:25.906Z,14.50
2019-05-18T05:18:56.233Z,14.07
2019-05-18T05:21:26.515Z,13.67
2019-05-18T05:23:56.950Z,14.40
2019-05-18T05:26:27.535Z,15.80
2019-05-18T05:29:04.494Z,15.43
2019-05-18T05:31:35.229Z,16.70
2019-05-18T05:34:06.425Z,15.10
2019-05-18T05:36:37.313Z,16.10
2019-05-18T05:39:11.403Z,15.60
2019-05-18T05:41:41.792Z,16.07
2019-05-18T05:44:12.900Z,14.87
2019-05-18T05:46:43.128Z,16.17
2019-05-18T05:49:13.501Z,16.30
2019-05-18T05:51:44.470Z,16.07
2019-05-18T05:54:15.534Z,15.37
2019-05-18T05:56:48.959Z,15.33
2019-05-18T05:59:19.099Z,15.87
2019-05-18T06:01:51.344Z,15.17
2019-05-18T06:04:21.689Z,15.23
2019-05-18T06:07:00.228Z,15.13
2019-05-18T06:09:30.528Z,14.70
2019-05-18T06:12:00.590Z,15.13
2019-05-18T06:14:31.254Z,15.47
2019-05-18T06:17:01.714Z,13.97
2019-05-18T06:19:31.969Z,14.27
2019-05-18T06:22:02.326Z,14.37
2019-05-18T06:24:33.401Z,13.20
2019-05-18T06:27:03.540Z,12.77
2019-05-18T06:29:34.561Z,12.60
2019-05-18T06:32:05.966Z,13.23
2019-05-18T06:34:37.703Z,12.73
2019-05-18T06:37:08.704Z,12.27
2019-05-18T06:39:39.338Z,11.90
2019-05-18T06:42:13.175Z,11.50
2019-05-18T06:44:43.389Z,11.00
2019-05-18T06:47:14.029Z,10.43
2019-05-18T06:49:47.620Z,10.30
2019-05-18T06:52:19.035Z,12.10
2019-05-18T06:54:49.999Z,12.00
2019-05-18T06:57:36.113Z,11.67
2019-05-18T07:00:07.060Z,10.10
2019-05-18T07:02:37.441Z,9.13
2019-05-18T07:05:09.725Z,8.37
2019-05-18T07:07:40.147Z,7.93
2019-05-18T07:10:10.347Z,11.20
2019-05-18T07:12:41.090Z,10.93
2019-05-18T07:15:11.920Z,11.60
2019-05-18T07:17:42.939Z,12.50
2019-05-18T07:20:13.496Z,12.30
2019-05-18T07:22:43.753Z,13.37
2019-05-18T07:25:14.371Z,14.03
2019-05-18T07:27:44.920Z,12.63
2019-05-18T07:30:19.172Z,13.10
2019-05-18T07:32:49.711Z,13.13
2019-05-18T07:35:20.135Z,12.53
2019-05-18T07:37:51.572Z,12.50
2019-05-18T07:40:22.298Z,12.43
2019-05-18T07:42:52.621Z,11.63
2019-05-18T07:45:22.966Z,12.20
2019-05-18T07:47:53.679Z,11.70
2019-05-18T07:50:24.218Z,12.33
2019-05-18T07:52:54.959Z,11.93
2019-05-18T07:55:28.616Z,11.60
2019-05-18T07:57:59.264Z,12.27
2019-05-18T08:00:29.724Z,10.83
2019-05-18T08:03:08.596Z,10.57
2019-05-18T08:05:42.118Z,9.70
2019-05-18T08:08:16.010Z,9.67
2019-05-18T08:10:46.971Z,9.73
2019-05-18T08:13:17.528Z,9.00
2019-05-18T08:15:54.765Z,8.33
2019-05-18T08:18:25.346Z,8.57
2019-05-18T08:20:56.110Z,7.50
2019-05-18T08:23:30.527Z,7.77
2019-05-18T08:26:01.065Z,6.90
2019-05-18T08:28:38.570Z,7.53
2019-05-18T08:31:10.414Z,7.20
2019-05-18T08:33:41.577Z,7.60
2019-05-18T08:36:12.149Z,7.03
2019-05-18T08:38:42.984Z,6.63
2019-05-18T08:41:14.432Z,6.90
2019-05-18T08:43:49.795Z,7.13
2019-05-18T08:46:20.580Z,6.77
2019-05-18T08:48:51.487Z,6.60
2019-05-18T08:51:22.017Z,5.80
2019-05-18T08:53:53.880Z,5.67
2019-05-18T08:56:30.922Z,4.10
2019-05-18T08:59:01.525Z,3.50
2019-05-18T09:01:36.994Z,3.50
2019-05-18T09:04:10.904Z,4.00
2019-05-18T09:06:42.795Z,3.73
2019-05-18T09:09:13.383Z,4.10
2019-05-18T09:11:45.397Z,3.27
2019-05-18T09:14:15.875Z,3.10
2019-05-18T09:16:50.626Z,3.80
2019-05-18T09:19:21.497Z,3.40
2019-05-18T09:21:54.398Z,4.07
2019-05-18T09:24:26.398Z,3.70
2019-05-18T09:27:09.312Z,3.90
2019-05-18T09:29:40.690Z,3.77
2019-05-18T09:32:19.173Z,3.70
2019-05-18T09:34:58.079Z,3.50
2019-05-18T09:37:34.928Z,3.30
2019-05-18T09:40:06.343Z,3.43
2019-05-18T09:42:40.699Z,3.70
2019-05-18T09:45:11.515Z,3.80
2019-05-18T09:47:46.822Z,3.63
2019-05-18T09:50:20.232Z,4.10
2019-05-18T09:52:50.054Z,3.30
2019-05-18T09:55:21.296Z,3.57
2019-05-18T09:57:54.034Z,3.10
2019-05-18T10:00:28.198Z,3.53
2019-05-18T10:03:00.529Z,4.50
2019-05-18T10:05:31.627Z,4.00
2019-05-18T10:08:02.542Z,3.13
2019-05-18T10:10:35.188Z,2.63
2019-05-18T10:13:08.220Z,2.70
2019-05-18T10:15:39.418Z,3.10
2019-05-18T10:18:09.944Z,2.90
2019-05-18T10:20:46.720Z,2.70
2019-05-18T10:23:16.903Z,2.47
2019-05-18T10:25:50.272Z,3.63
2019-05-18T10:28:23.462Z,3.60
2019-05-18T10:30:54.031Z,4.20
2019-05-18T10:33:27.677Z,3.83
2019-05-18T10:36:02.067Z,4.13
2019-05-18T10:38:33.485Z,3.77
2019-05-18T10:41:04.595Z,3.60
2019-05-18T10:43:38.015Z,3.00
2019-05-18T10:46:26.845Z,4.00
2019-05-18T10:49:03.923Z,2.60
2019-05-18T10:51:35.183Z,2.97
2019-05-18T10:54:10.993Z,2.87
2019-05-18T10:56:43.359Z,2.93
2019-05-18T10:59:14.475Z,3.20
2019-05-18T11:01:45.430Z,3.60
2019-05-18T11:04:19.022Z,3.17
2019-05-18T11:06:51.835Z,3.57
2019-05-18T11:09:25.992Z,4.23
2019-05-18T11:12:02.076Z,3.27
2019-05-18T11:14:32.953Z,3.87
2019-05-18T11:17:04.241Z,4.60
2019-05-18T11:19:34.562Z,4.80
2019-05-18T11:22:10.229Z,4.97
2019-05-18T11:24:40.566Z,4.37
2019-05-18T11:27:11.059Z,3.70
2019-05-18T11:29:46.314Z,4.67
2019-05-18T11:32:16.736Z,4.73
2019-05-18T11:34:50.941Z,4.37
2019-05-18T11:37:24.696Z,3.90
2019-05-18T11:39:56.721Z,4.40
2019-05-18T11:42:27.197Z,4.50
2019-05-18T11:44:58.088Z,3.20
2019-05-18T11:47:31.967Z,4.10
2019-05-18T11:50:02.652Z,4.80
2019-05-18T11:52:33.748Z,4.77
2019-05-18T11:55:05.344Z,4.00
2019-05-18T11:57:36.007Z,3.87
2019-05-18T12:00:10.046Z,3.97
2019-05-18T12:02:46.494Z,3.07
2019-05-18T12:05:20.378Z,3.80
2019-05-18T12:07:52.324Z,3.47
2019-05-18T12:10:26.024Z,3.60
2019-05-18T12:12:56.355Z,3.53
2019-05-18T12:15:27.130Z,3.47
2019-05-18T12:18:01.279Z,3.10
2019-05-18T12:20:35.088Z,3.60
2019-05-18T12:23:08.157Z,2.80
2019-05-18T12:25:38.325Z,3.27
2019-05-18T12:28:11.157Z,3.08
2019-05-18T12:30:41.973Z,3.40
2019-05-18T12:33:48.485Z,3.10
2019-05-18T12:36:21.851Z,3.07
2019-05-18T12:38:55.589Z,2.60
2019-05-18T12:41:35.378Z,3.00
2019-05-18T12:44:07.491Z,2.80
2019-05-18T12:46:38.129Z,2.60
2019-05-18T12:49:08.322Z,3.10
2019-05-18T12:51:44.670Z,2.50
2019-05-18T12:54:28.778Z,2.53
2019-05-18T12:56:52.421Z,3.20
2019-05-18T12:59:22.914Z,3.27
2019-05-18T13:01:53.556Z,3.30
2019-05-18T13:04:33.471Z,2.92
2019-05-18T13:07:04.013Z,2.75
2019-05-18T13:09:37.440Z,2.30
2019-05-18T13:12:11.575Z,2.72
2019-05-18T13:14:41.034Z,2.70
2019-05-18T13:17:13.027Z,2.83
2019-05-18T13:19:48.743Z,2.60
2019-05-18T13:22:18.966Z,2.55
2019-05-18T13:24:53.477Z,2.65
2019-05-18T13:27:38.350Z,2.50
2019-05-18T13:30:00.863Z,2.80
2019-05-18T13:32:36.489Z,2.27
2019-05-18T13:35:16.353Z,2.42
2019-05-18T13:37:48.498Z,2.40
2019-05-18T13:40:21.783Z,2.70
2019-05-18T13:43:05.446Z,2.47
2019-05-18T13:45:36.857Z,2.72
2019-05-18T13:48:11.515Z,2.40
2019-05-18T13:50:44.785Z,2.40
2019-05-18T13:53:18.891Z,2.35
2019-05-18T13:55:50.231Z,2.60
2019-05-18T13:58:21.266Z,2.17
2019-05-18T14:00:52.736Z,2.45
2019-05-18T14:03:26.115Z,2.45
2019-05-18T14:05:56.683Z,2.40
2019-05-18T14:08:30.958Z,2.90
2019-05-18T14:11:09.319Z,2.52
2019-05-18T14:13:39.751Z,2.00
2019-05-18T14:16:14.516Z,2.37
2019-05-18T14:18:46.527Z,2.02
2019-05-18T14:21:19.087Z,2.25
2019-05-18T14:23:50.180Z,2.25
2019-05-18T14:26:21.560Z,2.30
2019-05-18T14:28:56.980Z,2.30
2019-05-18T14:31:29.434Z,2.10
2019-05-18T14:34:00.674Z,2.30
2019-05-18T14:36:31.467Z,2.10
2019-05-18T14:39:03.371Z,2.60
2019-05-18T14:41:36.372Z,2.17
2019-05-18T14:44:17.768Z,2.35
2019-05-18T14:46:52.841Z,2.00
2019-05-18T14:49:26.198Z,2.35
2019-05-18T14:51:58.446Z,2.52
2019-05-18T14:54:37.887Z,2.40
2019-05-18T14:57:19.696Z,2.42
2019-05-18T15:00:11.570Z,2.35
2019-05-18T15:02:52.046Z,2.77
2019-05-18T15:05:28.144Z,2.30
2019-05-18T15:07:59.750Z,2.62
2019-05-18T15:10:31.976Z,2.10
2019-05-18T15:13:14.683Z,2.30
2019-05-18T15:15:53.406Z,2.47
2019-05-18T15:18:24.555Z,2.40
2019-05-18T15:20:59.785Z,2.70
2019-05-18T15:23:33.725Z,2.57
2019-05-18T15:26:12.259Z,2.20
2019-05-18T15:28:43.480Z,2.10
2019-05-18T15:31:14.854Z,2.67
2019-05-18T15:33:49.600Z,2.70
2019-05-18T15:36:20.703Z,2.57
2019-05-18T15:38:53.786Z,2.60
2019-05-18T15:41:35.018Z,2.83
2019-05-18T15:44:08.140Z,2.80
2019-05-18T15:46:48.849Z,2.83
2019-05-18T15:49:29.163Z,2.70
2019-05-18T15:52:02.511Z,3.10
2019-05-18T15:54:36.296Z,3.10
2019-05-18T15:57:11.508Z,2.90
2019-05-18T15:59:46.205Z,2.50
2019-05-18T16:02:17.977Z,3.47
2019-05-18T16:04:49.052Z,3.03
2019-05-18T16:07:21.953Z,3.20
2019-05-18T16:09:56.100Z,2.93
2019-05-18T16:12:38.645Z,3.73
2019-05-18T16:15:09.479Z,3.47
2019-05-18T16:17:43.968Z,3.17
2019-05-18T16:20:15.088Z,3.50
2019-05-18T16:22:48.497Z,3.30
2019-05-18T16:25:22.764Z,3.33
2019-05-18T16:28:04.542Z,3.70
2019-05-18T16:30:35.364Z,3.50
2019-05-18T16:33:11.532Z,2.90
2019-05-18T16:36:03.311Z,3.10
2019-05-18T16:38:39.128Z,3.20
2019-05-18T16:41:18.359Z,3.00
2019-05-18T16:43:53.199Z,3.00
2019-05-18T16:46:25.331Z,2.83
2019-05-18T16:48:56.195Z,3.10
2019-05-18T16:51:28.495Z,3.47
2019-05-18T16:54:00.708Z,3.80
2019-05-18T16:56:43.044Z,3.50
2019-05-18T16:59:35.447Z,3.77
2019-05-18T17:02:30.780Z,4.40
2019-05-18T17:04:52.075Z,4.67
2019-05-18T17:07:24.059Z,5.57
2019-05-18T17:10:15.807Z,5.97
2019-05-18T17:12:54.627Z,7.37
2019-05-18T17:18:29.457Z,7.00
2019-05-18T17:21:17.651Z,8.20
2019-05-18T17:23:48.675Z,8.13
2019-05-18T17:26:26.358Z,8.50
2019-05-18T17:29:02.365Z,8.80
2019-05-18T17:31:38.384Z,10.30
2019-05-18T17:34:13.229Z,9.90
2019-05-18T17:36:44.267Z,9.70
2019-05-18T17:39:34.390Z,11.33
2019-05-18T17:42:32.631Z,10.97
2019-05-18T17:45:05.661Z,10.70
2019-05-18T17:47:48.908Z,8.83
2019-05-18T17:50:19.992Z,8.13
2019-05-18T17:52:59.106Z,8.67
2019-05-18T17:55:45.170Z,10.97
2019-05-18T17:58:22.475Z,9.83
2019-05-18T18:01:05.805Z,12.63
2019-05-18T18:03:39.605Z,13.77
2019-05-18T18:06:32.376Z,16.77
2019-05-18T18:09:07.825Z,18.73
2019-05-18T18:11:49.839Z,18.43
2019-05-18T18:14:23.433Z,17.63
2019-05-18T18:17:26.715Z,20.70
2019-05-18T18:20:01.949Z,20.40
2019-05-18T18:22:42.962Z,23.27
2019-05-18T18:25:21.569Z,19.43
2019-05-18T18:27:57.133Z,19.57
2019-05-18T18:30:27.901Z,20.33
2019-05-18T18:33:02.568Z,24.20
2019-05-18T18:35:39.708Z,25.73
2019-05-18T18:38:12.408Z,26.93
2019-05-18T18:40:49.193Z,27.13
2019-05-18T18:43:21.412Z,27.40
2019-05-18T18:45:53.082Z,26.93
2019-05-18T18:48:29.115Z,26.80
2019-05-18T18:51:02.203Z,25.60
2019-05-18T18:53:35.555Z,21.60
2019-05-18T18:56:26.792Z,22.17
2019-05-18T18:59:05.309Z,22.77
2019-05-18T19:01:41.269Z,22.10
2019-05-18T19:04:14.183Z,21.70
2019-05-18T19:06:49.260Z,22.87
2019-05-18T19:09:22.872Z,22.53
2019-05-18T19:12:04.939Z,23.50
2019-05-18T19:14:36.553Z,23.20
2019-05-18T19:17:09.792Z,26.00
2019-05-18T19:19:43.418Z,25.30
2019-05-18T19:22:16.211Z,23.23
2019-05-18T19:24:47.963Z,25.13
2019-05-18T19:27:18.730Z,22.27
2019-05-18T19:29:49.751Z,23.20
2019-05-18T19:32:20.267Z,25.10
2019-05-18T19:34:50.663Z,23.50
2019-05-18T19:37:21.408Z,25.20
2019-05-18T19:40:00.581Z,25.70
2019-05-18T19:42:34.673Z,27.27
2019-05-18T19:45:05.204Z,25.13
2019-05-18T19:47:37.950Z,33.87
2019-05-18T19:50:13.848Z,38.13
2019-05-18T19:52:55.455Z,36.60
2019-05-18T19:55:26.268Z,32.90
2019-05-18T19:58:08.826Z,27.83
2019-05-18T20:00:42.840Z,25.20
2019-05-18T20:03:23.299Z,24.93
2019-05-18T20:05:56.937Z,28.40
2019-05-18T20:08:37.851Z,29.63
2019-05-18T20:11:13.008Z,27.43
2019-05-18T20:13:43.920Z,27.93
2019-05-18T20:16:16.070Z,27.57
2019-05-18T20:18:50.029Z,28.03
2019-05-18T20:21:27.359Z,24.10
2019-05-18T20:23:59.599Z,23.50
2019-05-18T20:26:30.011Z,26.33
2019-05-18T20:29:00.961Z,26.13
2019-05-18T20:31:32.887Z,25.03
2019-05-18T20:34:03.493Z,24.23
2019-05-18T20:36:40.567Z,23.87
2019-05-18T20:39:16.878Z,25.60
2019-05-18T20:41:51.105Z,28.03
2019-05-18T20:44:21.856Z,27.03
2019-05-18T20:46:54.419Z,32.27
2019-05-18T20:49:29.801Z,39.50
2019-05-18T20:52:01.565Z,55.30
2019-05-18T20:54:32.824Z,63.23
2019-05-18T20:57:06.848Z,56.53
2019-05-18T20:59:37.238Z,49.63
2019-05-18T21:02:11.395Z,45.07
2019-05-18T21:04:45.254Z,42.70
2019-05-18T21:07:23.266Z,38.33
2019-05-18T21:09:55.748Z,30.40
2019-05-18T21:12:37.525Z,35.33
2019-05-18T21:15:20.130Z,36.77
2019-05-18T21:17:52.196Z,37.63
2019-05-18T21:20:27.468Z,37.07
2019-05-18T21:23:00.786Z,34.80
2019-05-18T21:25:36.089Z,36.17
2019-05-18T21:28:13.815Z,37.07
2019-05-18T21:30:49.557Z,37.77
2019-05-18T21:33:24.387Z,36.27
2019-05-18T21:36:00.208Z,32.83
2019-05-18T21:38:31.325Z,37.20
2019-05-18T21:41:05.830Z,35.13
2019-05-18T21:43:49.478Z,36.50
2019-05-18T21:46:25.038Z,33.07
2019-05-18T21:48:56.762Z,33.80
2019-05-18T21:51:48.770Z,33.50
2019-05-18T21:54:30.597Z,31.60
2019-05-18T21:57:10.306Z,33.00
2019-05-18T21:59:56.378Z,33.90
2019-05-18T22:02:34.048Z,33.53
2019-05-18T22:05:07.815Z,32.63
2019-05-18T22:07:41.308Z,31.77
2019-05-18T22:10:25.648Z,29.67
2019-05-18T22:12:53.158Z,27.47
2019-05-18T22:15:27.782Z,26.53
2019-05-18T22:18:06.367Z,26.73
2019-05-18T22:20:43.227Z,26.10
2019-05-18T22:23:15.448Z,26.00
2019-05-18T22:25:48.197Z,26.03
2019-05-18T22:28:22.153Z,25.70
2019-05-18T22:30:54.476Z,25.57
2019-05-18T22:33:31.650Z,24.70
2019-05-18T22:36:13.708Z,25.10
2019-05-18T22:38:45.688Z,24.97
2019-05-18T22:41:16.326Z,25.30
2019-05-18T22:43:50.721Z,26.33
2019-05-18T22:46:21.972Z,22.73
2019-05-18T22:48:54.541Z,25.97
2019-05-18T22:51:27.587Z,25.10
2019-05-18T22:53:59.448Z,25.40
2019-05-18T22:56:33.133Z,26.37
2019-05-18T22:59:03.657Z,24.07
2019-05-18T23:01:35.075Z,26.03
2019-05-18T23:04:05.552Z,28.10
2019-05-18T23:06:50.430Z,26.23
2019-05-18T23:09:13.685Z,26.50
2019-05-18T23:11:44.420Z,25.60
2019-05-18T23:14:16.102Z,25.50
2019-05-18T23:16:46.972Z,27.13
2019-05-18T23:19:21.532Z,26.57
2019-05-18T23:21:56.172Z,27.93
2019-05-18T23:24:30.919Z,28.33
2019-05-18T23:27:01.584Z,27.63
2019-05-18T23:29:33.849Z,30.13
2019-05-18T23:32:05.115Z,25.60
2019-05-18T23:34:38.485Z,28.73
2019-05-18T23:37:09.424Z,27.07
2019-05-18T23:39:40.991Z,28.33
2019-05-18T23:42:14.836Z,27.33
2019-05-18T23:44:47.857Z,28.60
2019-05-18T23:47:18.786Z,26.97
2019-05-18T23:49:49.387Z,30.00
2019-05-18T23:52:20.306Z,30.47
2019-05-18T23:54:52.217Z,32.63
2019-05-18T23:57:23.255Z,41.47
2019-05-18T23:59:54.744Z,45.17
